Latest Weather Observations for Salmon Gums RS

IDW60801

Issued at 10:05 pm WST Wednesday 26 November 2014 (issued every 30 minutes, with the page automatically refreshed every 10 minutes)

About weather observations | Map of weather stations | Latest weather observations for WA | Other Formats
Station Details ID: 012071 Name: SALMON GUMS RES.STN. Lat: -32.99 Lon: 121.62 Height: 249.0 m
Data from the previous 72 hours. | See also: Recent months at Salmon Gums RS
Date/Time
WST
Temp
°C
App
Temp
°C
Dew
Point
Rel
Hum
%
Delta-T
°C
Wind Press
QNH
hPa
Press
MSL
hPa
Rain
since 9 am
mm
Dir
 
Spd
km/h
Gust
km/h
Spd
kts
Gust
kts
26/10:00pm 19.0 14.9 11.6 62 4.1 E 24 35 13 19 - - 0.0
26/09:30pm 19.5 15.9 11.8 61 4.3 E 22 32 12 17 - - 0.0
26/09:00pm 20.5 17.2 11.7 57 4.9 E 20 28 11 15 - - 0.0
26/08:30pm 22.1 18.4 11.5 51 6.0 E 22 30 12 16 - - 0.0
26/08:00pm 23.2 19.3 10.9 46 6.9 E 22 32 12 17 - - 0.0
26/07:30pm 24.1 20.4 6.4 32 9.2 E 15 24 8 13 - - 0.0
26/07:00pm 24.9 20.8 6.1 30 9.8 E 17 20 9 11 - - 0.0
26/06:30pm 26.2 22.0 5.7 27 10.7 E 17 24 9 13 - - 0.0
26/06:00pm 27.6 22.9 5.2 24 11.7 E 19 28 10 15 - - 0.0
26/05:30pm 28.4 23.5 5.3 23 12.1 ENE 20 30 11 16 - - 0.0
26/05:00pm 28.9 24.2 5.1 22 12.5 E 19 26 10 14 - - 0.0
26/04:30pm 29.1 24.9 5.9 23 12.3 E 17 22 9 12 - - 0.0
26/04:00pm 28.9 23.7 5.7 23 12.3 E 22 30 12 16 - - 0.0
26/03:30pm 29.3 25.4 5.4 22 12.6 ENE 15 26 8 14 - - 0.0
26/03:00pm 29.4 25.2 5.5 22 12.6 E 17 26 9 14 - - 0.0
26/02:30pm 29.6 25.8 5.6 22 12.7 E 15 24 8 13 - - 0.0
26/02:00pm 28.7 25.0 6.1 24 12.0 E 15 33 8 18 - - 0.0
26/01:30pm 29.2 25.8 7.7 26 11.8 ENE 15 22 8 12 - - 0.0
26/01:00pm 28.6 24.5 6.1 24 12.0 NE 17 24 9 13 - - 0.0
26/12:30pm 28.6 24.6 8.3 28 11.2 ENE 19 32 10 17 - - 0.0
26/12:00pm 27.7 24.0 8.1 29 10.7 NE 17 35 9 19 - - 0.0
26/11:30am 26.2 22.8 9.1 34 9.4 NNE 17 28 9 15 - - 0.0
26/11:00am 25.2 21.3 8.7 35 9.0 ENE 19 30 10 16 - - 0.0
26/10:30am 24.7 20.6 8.6 36 8.7 ENE 20 33 11 18 - - 0.0
26/10:00am 24.1 20.5 9.7 40 8.0 NE 19 28 10 15 - - 0.0
26/09:30am 22.3 18.9 9.1 43 7.1 NE 17 26 9 14 - - 0.0
26/09:00am 21.1 16.8 9.4 47 6.3 NE 22 30 12 16 - - 0.0
26/08:30am 20.6 16.8 9.8 50 5.9 NE 20 30 11 16 - - 0.0
26/08:00am 19.2 15.1 10.2 56 4.9 NE 22 32 12 17 - - 0.0
26/07:30am 18.1 14.0 10.0 59 4.4 ENE 22 35 12 19 - - 0.0
26/07:00am 16.5 12.0 9.9 65 3.5 NE 24 33 13 18 - - 0.0
26/06:30am 15.6 12.3 10.8 73 2.6 NE 19 30 10 16 - - 0.0
26/06:00am 13.9 10.2 10.1 78 2.0 ENE 20 32 11 17 - - 0.0
26/05:30am 12.7 9.1 9.9 83 1.5 ENE 19 26 10 14 - - 0.0
26/05:00am 12.2 9.3 9.8 85 1.2 ENE 15 22 8 12 - - 0.0
26/04:30am 12.3 8.7 9.9 85 1.2 ENE 19 24 10 13 - - 0.0
26/04:00am 12.3 9.4 9.7 84 1.3 ENE 15 22 8 12 - - 0.0
26/03:30am 12.4 9.2 9.8 84 1.3 ENE 17 26 9 14 - - 0.0
26/03:00am 12.5 8.9 9.9 84 1.3 E 19 26 10 14 - - 0.0
26/02:30am 12.5 9.7 10.0 85 1.3 E 15 20 8 11 - - 0.0
26/02:00am 12.5 9.3 10.0 85 1.3 E 17 22 9 12 - - 0.0
26/01:30am 12.6 9.4 10.0 84 1.4 E 17 22 9 12 - - 0.0
26/01:00am 12.7 9.9 9.9 83 1.5 E 15 22 8 12 - - 0.0
26/12:30am 13.1 9.8 9.7 80 1.8 E 17 20 9 11 - - 0.0
26/12:00am 13.3 9.9 9.2 76 2.1 E 17 24 9 13 - - 0.0
 
Date/Time
WST
Temp
°C
App
Temp
°C
Dew
Point
Rel
Hum
%
Delta-T
°C
Wind Press
QNH
hPa
Press
MSL
hPa
Rain
since 9 am
mm
Dir
 
Spd
km/h
Gust
km/h
Spd
kts
Gust
kts
25/11:30pm 13.8 9.7 8.8 72 2.6 E 20 33 11 18 - - 0.0
25/11:00pm 14.0 9.5 8.4 69 2.8 E 22 30 12 16 - - 0.0
25/10:30pm 14.3 10.5 8.9 70 2.8 ESE 19 26 10 14 - - 0.0
25/10:00pm 14.6 10.5 8.8 68 3.0 ESE 20 30 11 16 - - 0.0
25/09:30pm 15.1 11.1 9.0 67 3.2 ESE 20 28 11 15 - - 0.0
25/09:00pm 15.8 11.1 9.2 65 3.4 ESE 24 35 13 19 - - 0.0
25/08:30pm 16.5 11.5 9.4 63 3.7 SE 26 37 14 20 - - 0.0
25/08:00pm 17.0 13.2 9.9 63 3.8 SE 20 30 11 16 - - 0.0
25/07:30pm 17.9 13.5 10.3 61 4.1 SE 24 35 13 19 - - 0.0
25/07:00pm 18.8 14.0 10.4 58 4.6 SE 26 37 14 20 - - 0.0
25/06:30pm 19.9 15.9 10.3 54 5.2 SE 22 33 12 18 - - 0.0
25/06:00pm 21.3 16.1 10.2 49 6.1 SE 28 39 15 21 - - 0.0
25/05:30pm 22.7 17.9 10.2 45 6.9 SSE 26 35 14 19 - - 0.0
25/05:00pm 23.8 18.8 9.4 40 7.9 SE 26 33 14 18 - - 0.0
25/04:30pm 25.3 21.3 8.3 34 9.2 SE 19 35 10 19 - - 0.0
25/04:00pm 26.4 23.7 7.4 30 10.2 SE 11 22 6 12 - - 0.0
25/03:30pm 26.0 22.7 6.6 29 10.3 ESE 13 20 7 11 - - 0.0
25/03:00pm 26.2 22.5 6.3 28 10.5 E 15 26 8 14 - - 0.0
25/02:30pm 26.1 23.4 7.2 30 10.1 E 11 20 6 11 - - 0.0
25/02:00pm 25.8 21.9 6.9 30 10.0 SE 17 24 9 13 - - 0.0
25/01:30pm 25.6 23.0 7.7 32 9.6 ENE 11 22 6 12 - - 0.0
25/01:00pm 25.5 23.2 7.6 32 9.6 ESE 9 24 5 13 - - 0.0
25/12:30pm 24.4 22.2 8.0 35 8.8 E 9 19 5 10 - - 0.0
25/12:00pm 23.3 20.2 7.4 36 8.4 E 13 24 7 13 - - 0.0
25/11:30am 22.7 20.2 8.4 40 7.7 E 11 22 6 12 - - 0.0
25/11:00am 22.4 20.3 9.9 45 6.9 NE 11 20 6 11 - - 0.0
25/10:30am 21.5 19.0 9.7 47 6.4 E 13 20 7 11 - - 0.0
25/10:00am 20.8 18.2 9.4 48 6.2 E 13 22 7 12 - - 0.0
25/09:30am 20.1 17.2 9.7 51 5.6 E 15 22 8 12 - - 0.0
25/09:00am 19.2 15.6 9.7 54 5.1 E 19 28 10 15 - - 0.0
25/08:30am 18.1 14.8 9.7 58 4.5 E 17 28 9 15 - - 0.0
25/08:00am 16.6 12.5 8.8 60 4.1 ENE 20 28 11 15 - - 0.0
25/07:30am 16.3 12.4 9.5 64 3.6 ENE 20 30 11 16 - - 0.0
25/07:00am 14.9 11.0 8.8 67 3.1 ENE 19 26 10 14 - - 0.0
25/06:30am 14.3 10.6 9.3 72 2.6 ENE 19 28 10 15 - - 0.0
25/06:00am 12.6 9.8 8.7 77 2.0 E 13 20 7 11 - - 0.0
25/05:30am 10.6 8.9 8.2 85 1.2 E 7 9 4 5 - - 0.0
25/05:00am 8.9 6.9 6.9 87 0.9 E 7 13 4 7 - - 0.0
25/04:30am 8.5 6.0 6.5 87 0.9 E 9 13 5 7 - - 0.0
25/04:00am 8.7 5.8 6.5 86 1.0 E 11 13 6 7 - - 0.0
25/03:30am 8.3 5.7 6.1 86 1.0 E 9 13 5 7 - - 0.0
25/03:00am 8.8 6.3 6.4 85 1.1 E 9 11 5 6 - - 0.0
25/02:30am 8.9 6.7 6.2 83 1.3 ESE 7 11 4 6 - - 0.0
25/02:00am 9.7 7.2 6.6 81 1.5 ESE 9 13 5 7 - - 0.0
25/01:30am 9.7 7.2 6.4 80 1.6 E 9 13 5 7 - - 0.0
25/01:00am 10.3 7.0 6.6 78 1.8 E 13 19 7 10 - - 0.0
25/12:30am 10.5 7.2 6.6 77 1.9 E 13 17 7 9 - - 0.0
25/12:00am 10.9 7.6 6.6 75 2.1 ESE 13 19 7 10 - - 0.0
 
Date/Time
WST
Temp
°C
App
Temp
°C
Dew
Point
Rel
Hum
%
Delta-T
°C
Wind Press
QNH
hPa
Press
MSL
hPa
Rain
since 9 am
mm
Dir
 
Spd
km/h
Gust
km/h
Spd
kts
Gust
kts
24/11:30pm 11.5 8.0 7.0 74 2.2 ESE 15 19 8 10 - - 0.0
24/11:00pm 11.6 7.7 7.1 74 2.2 ESE 17 22 9 12 - - 0.0
24/10:30pm 12.2 8.4 7.5 73 2.3 ESE 17 24 9 13 - - 0.0
24/10:00pm 12.3 8.5 7.6 73 2.3 SE 17 24 9 13 - - 0.0
24/09:30pm 12.7 8.4 7.8 72 2.4 SE 20 28 11 15 - - 0.0
24/09:00pm 13.3 8.7 8.0 70 2.7 SE 22 32 12 17 - - 0.0
24/08:30pm 13.7 9.5 8.1 69 2.8 SE 20 30 11 16 - - 0.0
24/08:00pm 13.9 10.1 7.7 66 3.1 SSE 17 20 9 11 - - 0.0
24/07:30pm 14.6 10.4 7.6 63 3.5 SSE 19 30 10 16 - - 0.0
24/07:00pm 15.4 10.1 6.7 56 4.3 SSE 24 33 13 18 - - 0.0
24/06:30pm 16.5 10.7 6.3 51 5.0 SSE 26 35 14 19 - - 0.0
24/06:00pm 18.3 12.5 6.2 45 6.0 SSE 26 35 14 19 - - 0.0
24/05:30pm 20.0 14.1 5.6 39 7.2 SSE 26 33 14 18 - - 0.0
24/05:00pm 21.9 17.7 4.0 31 8.8 SSE 15 22 8 12 - - 0.0
24/04:30pm 21.6 17.7 3.3 30 8.8 ESE 13 20 7 11 - - 0.0
24/04:00pm 21.8 17.6 3.9 31 8.8 SSE 15 22 8 12 - - 0.0
24/03:30pm 21.7 18.4 4.7 33 8.4 SE 11 20 6 11 - - 0.0
24/03:00pm 22.2 19.5 5.6 34 8.4 SE 9 20 5 11 - - 0.0
24/02:30pm 21.8 18.4 5.7 35 8.2 SE 13 24 7 13 - - 0.0
24/02:00pm 21.0 17.6 4.1 33 8.3 E 11 28 6 15 - - 0.0
24/01:30pm 20.8 16.9 5.2 36 7.8 SSE 15 26 8 14 - - 0.0
24/01:00pm 20.4 16.3 4.4 35 7.8 ESE 15 24 8 13 - - 0.0
24/12:30pm 21.5 19.6 6.6 38 7.7 SSE 6 19 3 10 - - 0.0
24/12:00pm 20.1 17.1 4.2 35 7.7 E 9 20 5 11 - - 0.0
24/11:30am 19.4 16.3 3.6 35 7.6 SSE 9 20 5 11 - - 0.0
24/11:00am 19.0 15.8 5.1 40 6.8 S 11 20 6 11 - - 0.0
24/10:30am 18.5 16.1 5.4 42 6.5 ESE 7 17 4 9 - - 0.0
24/10:00am 17.7 15.2 4.6 42 6.3 S 7 15 4 8 - - 0.0
24/09:30am 17.5 15.3 6.4 48 5.5 SSE 7 15 4 8 - - 0.0
24/09:00am 16.4 13.7 5.4 48 5.3 SE 9 20 5 11 - - 0.0
24/08:30am 16.8 13.1 6.3 50 5.2 SSE 15 22 8 12 - - 0.0
24/08:00am 15.8 13.5 5.7 51 4.9 S 7 19 4 10 - - 0.0
24/07:30am 14.4 11.3 5.7 56 4.2 SSE 11 17 6 9 - - 0.0
24/07:00am 14.4 11.9 6.5 59 3.9 SSE 9 15 5 8 - - 0.0
24/06:30am 13.1 12.2 9.4 78 1.9 SSW 4 7 2 4 - - 0.0
24/06:00am 9.8 8.8 8.7 93 0.5 NW 4 6 2 3 - - 0.0
24/05:30am 7.0 4.8 6.1 94 0.4 NW 7 9 4 5 - - 0.0
24/05:00am 4.7 2.0 3.7 93 0.4 NW 7 9 4 5 - - 0.0
24/04:30am 3.7 0.8 2.5 92 0.5 NW 7 9 4 5 - - 0.0
24/04:00am 3.6 0.9 2.4 92 0.5 NW 6 7 3 4 - - 0.0
24/03:30am 3.8 1.1 2.5 91 0.5 NW 6 6 3 3 - - 0.0
24/03:00am 4.1 1.4 2.8 91 0.5 NW 6 7 3 4 - - 0.0
24/02:30am 4.5 1.9 3.0 90 0.6 NW 6 6 3 3 - - 0.0
24/02:00am 4.7 2.1 3.2 90 0.6 NW 6 6 3 3 - - 0.0
24/01:30am 5.3 2.8 3.6 89 0.7 NW 6 7 3 4 - - 0.0
24/01:00am 5.7 3.6 4.0 89 0.7 SSW 4 6 2 3 - - 0.0
24/12:30am 6.2 4.5 4.2 87 0.9 SSW 2 6 1 3 - - 0.0
24/12:00am 7.1 5.9 4.8 85 1.0 CALM 0 4 0 2 - - 0.0
 
Date/Time
WST
Temp
°C
App
Temp
°C
Dew
Point
Rel
Hum
%
Delta-T
°C
Wind Press
QNH
hPa
Press
MSL
hPa
Rain
since 9 am
mm
Dir
 
Spd
km/h
Gust
km/h
Spd
kts
Gust
kts
23/11:30pm 8.4 7.0 5.7 83 1.2 SSW 2 4 1 2 - - 0.0
23/11:00pm 9.4 7.9 6.7 83 1.3 SSW 4 6 2 3 - - 0.0
23/10:30pm 9.8 8.2 6.3 79 1.6 S 4 4 2 2 - - 0.0

Other Formats:

Comma delimited format used in spreadsheet applications
http://www.bom.gov.au/fwo/IDW60801/IDW60801.95639.axf

JavaScript Object Notation format (JSON) in row-major order
http://www.bom.gov.au/fwo/IDW60801/IDW60801.95639.json